createdAt,value
2023-01-29T00:00:11.858Z,82.53
2023-01-29T00:03:03.217Z,82.53
2023-01-29T00:05:31.821Z,82.61
2023-01-29T00:07:59.981Z,82.68
2023-01-29T00:10:28.192Z,82.57
2023-01-29T00:12:56.366Z,82.50
2023-01-29T00:15:24.586Z,82.38
2023-01-29T00:17:52.764Z,82.40
2023-01-29T00:20:20.974Z,82.41
2023-01-29T00:22:49.554Z,82.48
2023-01-29T00:25:17.713Z,82.43
2023-01-29T00:27:45.948Z,82.41
2023-01-29T00:30:16.535Z,82.34
2023-01-29T00:32:45.936Z,82.21
2023-01-29T00:35:14.041Z,82.51
2023-01-29T00:37:42.581Z,82.41
2023-01-29T00:40:11.603Z,82.25
2023-01-29T00:42:58.334Z,82.42
2023-01-29T00:45:26.484Z,82.75
2023-01-29T00:47:54.651Z,82.48
2023-01-29T00:50:22.773Z,82.33
2023-01-29T00:52:52.934Z,82.39
2023-01-29T00:55:21.219Z,82.41
2023-01-29T00:57:49.880Z,82.46
2023-01-29T01:00:19.321Z,82.23
2023-01-29T01:03:05.858Z,82.08
2023-01-29T01:05:34.986Z,82.36
2023-01-29T01:08:03.425Z,82.16
2023-01-29T01:10:33.378Z,82.43
2023-01-29T01:13:05.442Z,82.32
2023-01-29T01:15:40.110Z,82.27
2023-01-29T01:18:08.233Z,82.37
2023-01-29T01:20:36.662Z,82.14
2023-01-29T01:23:05.414Z,82.01
2023-01-29T01:25:33.847Z,82.11
2023-01-29T01:28:02.114Z,82.39
2023-01-29T01:30:30.263Z,82.69
2023-01-29T01:32:58.364Z,82.89
2023-01-29T01:35:26.619Z,82.87
2023-01-29T01:37:54.868Z,82.97
2023-01-29T01:40:25.571Z,82.68
2023-01-29T01:42:57.114Z,82.57
2023-01-29T01:45:35.731Z,82.49
2023-01-29T01:48:27.402Z,82.52
2023-01-29T01:51:06.520Z,82.37
2023-01-29T01:53:45.033Z,82.64
2023-01-29T01:56:21.383Z,82.40
2023-01-29T01:58:55.561Z,82.34
2023-01-29T02:01:29.942Z,82.53
2023-01-29T02:04:26.282Z,82.59
2023-01-29T02:07:14.543Z,82.70
2023-01-29T02:09:52.617Z,82.47
2023-01-29T02:12:21.628Z,82.75
2023-01-29T02:14:51.931Z,82.53
2023-01-29T02:17:20.668Z,82.38
2023-01-29T02:20:12.101Z,82.50
2023-01-29T02:22:56.100Z,82.34
2023-01-29T02:26:16.551Z,82.36
2023-01-29T02:29:22.554Z,82.17
2023-01-29T02:32:54.797Z,82.12
2023-01-29T02:35:30.016Z,82.11
2023-01-29T02:38:24.426Z,82.09
2023-01-29T02:41:18.122Z,81.87
2023-01-29T02:44:11.589Z,81.09
2023-01-29T02:47:05.496Z,80.75
2023-01-29T02:49:46.049Z,81.14
2023-01-29T02:52:31.057Z,81.12
2023-01-29T02:55:40.263Z,81.15
2023-01-29T02:58:33.297Z,81.09
2023-01-29T03:01:30.298Z,81.06
2023-01-29T03:04:06.273Z,80.87
2023-01-29T03:06:52.076Z,81.00
2023-01-29T03:09:33.814Z,81.14
2023-01-29T03:12:29.216Z,80.55
2023-01-29T03:15:12.509Z,80.57
2023-01-29T03:17:58.189Z,80.48
2023-01-29T03:20:35.648Z,80.82
2023-01-29T03:23:15.246Z,80.73
2023-01-29T03:26:02.956Z,80.68
2023-01-29T03:28:51.762Z,80.68
2023-01-29T03:31:39.593Z,80.82
2023-01-29T03:34:24.238Z,80.56
2023-01-29T03:36:59.907Z,80.46
2023-01-29T03:39:29.845Z,80.21
2023-01-29T03:42:30.287Z,80.29
2023-01-29T03:45:09.748Z,79.77
2023-01-29T03:47:47.345Z,79.96
2023-01-29T03:50:56.629Z,80.04
2023-01-29T03:53:39.730Z,79.80
2023-01-29T03:56:27.701Z,79.79
2023-01-29T03:59:03.536Z,80.08
2023-01-29T04:01:58.403Z,80.00
2023-01-29T04:04:32.157Z,79.82
2023-01-29T04:07:24.452Z,79.90
2023-01-29T04:10:07.348Z,79.69
2023-01-29T04:12:52.572Z,79.69
2023-01-29T04:15:24.661Z,79.48
2023-01-29T04:17:55.894Z,79.31
2023-01-29T04:21:01.787Z,79.13
2023-01-29T04:23:29.979Z,79.49
2023-01-29T04:26:25.451Z,79.57
2023-01-29T04:29:29.813Z,79.28
2023-01-29T04:32:13.692Z,79.30
2023-01-29T04:35:03.592Z,79.42
2023-01-29T04:38:07.013Z,79.21
2023-01-29T04:41:08.451Z,79.14
2023-01-29T04:43:53.342Z,79.30
2023-01-29T04:46:29.854Z,79.24
2023-01-29T04:49:30.265Z,78.97
2023-01-29T04:51:58.325Z,78.73
2023-01-29T04:55:05.213Z,78.80
2023-01-29T04:58:01.287Z,78.93
2023-01-29T05:00:44.795Z,79.10
2023-01-29T05:03:14.733Z,78.86
2023-01-29T05:05:49.109Z,78.85
2023-01-29T05:08:23.036Z,79.05
2023-01-29T05:10:54.240Z,78.52
2023-01-29T05:13:24.135Z,78.37
2023-01-29T05:16:42.167Z,78.62
2023-01-29T05:19:16.146Z,78.51
2023-01-29T05:21:48.191Z,78.35
2023-01-29T05:24:20.971Z,78.32
2023-01-29T05:27:11.103Z,78.31
2023-01-29T05:29:47.096Z,78.15
2023-01-29T05:32:16.070Z,78.14
2023-01-29T05:34:44.189Z,78.16
2023-01-29T05:37:12.257Z,78.29
2023-01-29T05:39:40.374Z,78.02
2023-01-29T05:42:08.487Z,78.31
2023-01-29T05:44:36.622Z,78.31
2023-01-29T05:47:04.795Z,77.97
2023-01-29T05:49:33.021Z,78.28
2023-01-29T05:52:01.194Z,78.20
2023-01-29T05:54:29.303Z,78.30
2023-01-29T05:56:57.467Z,78.05
2023-01-29T05:59:25.639Z,77.98
2023-01-29T06:01:53.790Z,77.86
2023-01-29T06:04:21.909Z,77.86
2023-01-29T06:06:49.985Z,78.11
2023-01-29T06:09:18.074Z,78.20
2023-01-29T06:11:46.139Z,78.04
2023-01-29T06:14:14.240Z,78.21
2023-01-29T06:16:42.345Z,78.32
2023-01-29T06:19:10.447Z,77.96
2023-01-29T06:21:38.563Z,78.00
2023-01-29T06:24:07.233Z,78.10
2023-01-29T06:26:35.356Z,78.08
2023-01-29T06:29:03.470Z,77.92
2023-01-29T06:31:38.754Z,78.27
2023-01-29T06:34:08.683Z,78.12
2023-01-29T06:36:36.928Z,77.99
2023-01-29T06:39:05.169Z,77.94
2023-01-29T06:41:33.585Z,77.85
2023-01-29T06:44:01.868Z,78.17
2023-01-29T06:46:30.177Z,78.13
2023-01-29T06:49:02.495Z,77.93
2023-01-29T06:51:30.726Z,77.92
2023-01-29T06:53:58.839Z,77.80
2023-01-29T06:56:27.254Z,77.87
2023-01-29T06:58:55.385Z,77.62
2023-01-29T07:01:35.117Z,77.38
2023-01-29T07:04:04.670Z,77.50
2023-01-29T07:06:33.421Z,77.90
2023-01-29T07:09:02.092Z,77.57
2023-01-29T07:11:30.599Z,77.85
2023-01-29T07:13:58.726Z,77.73
2023-01-29T07:16:26.989Z,78.04
2023-01-29T07:18:55.123Z,77.52
2023-01-29T07:21:23.412Z,77.80
2023-01-29T07:23:51.580Z,77.88
2023-01-29T07:26:19.864Z,77.52
2023-01-29T07:28:47.960Z,77.61
2023-01-29T07:31:16.374Z,77.27
2023-01-29T07:33:44.800Z,77.52
2023-01-29T07:36:15.871Z,77.07
2023-01-29T07:38:44.007Z,77.19
2023-01-29T07:41:12.710Z,77.03
2023-01-29T07:43:40.878Z,77.18
2023-01-29T07:46:09.176Z,76.94
2023-01-29T07:48:37.658Z,77.08
2023-01-29T07:51:06.080Z,76.77
2023-01-29T07:53:34.233Z,76.90
2023-01-29T07:56:03.447Z,77.09
2023-01-29T07:58:31.718Z,76.96
2023-01-29T08:00:59.825Z,77.25
2023-01-29T08:03:27.928Z,77.07
2023-01-29T08:05:58.053Z,76.90
2023-01-29T08:08:26.319Z,76.75
2023-01-29T08:10:54.705Z,77.00
2023-01-29T08:13:22.812Z,76.62
2023-01-29T08:15:50.912Z,76.96
2023-01-29T08:18:19.011Z,76.63
2023-01-29T08:20:47.134Z,76.36
2023-01-29T08:23:16.610Z,76.34
2023-01-29T08:25:44.872Z,76.62
2023-01-29T08:28:13.162Z,76.60
2023-01-29T08:30:41.495Z,76.50
2023-01-29T08:33:09.938Z,76.23
2023-01-29T08:35:38.111Z,76.11
2023-01-29T08:38:06.220Z,76.10
2023-01-29T08:40:35.586Z,75.95
2023-01-29T08:43:08.767Z,75.68
2023-01-29T08:45:41.572Z,75.73
2023-01-29T08:48:11.113Z,75.64
2023-01-29T08:50:39.478Z,75.62
2023-01-29T08:53:09.554Z,75.58
2023-01-29T08:55:41.918Z,75.49
2023-01-29T08:58:12.452Z,75.34
2023-01-29T09:00:40.606Z,75.31
2023-01-29T09:03:09.914Z,75.37
2023-01-29T09:05:40.004Z,75.25
2023-01-29T09:08:09.663Z,75.21
2023-01-29T09:10:37.816Z,75.10
2023-01-29T09:13:05.958Z,75.05
2023-01-29T09:15:34.056Z,74.92
2023-01-29T09:18:05.755Z,74.99
2023-01-29T09:20:34.269Z,75.06
2023-01-29T09:23:10.924Z,74.60
2023-01-29T09:25:39.069Z,74.62
2023-01-29T09:28:07.183Z,74.79
2023-01-29T09:30:37.906Z,74.96
2023-01-29T09:33:07.554Z,74.85
2023-01-29T09:35:37.166Z,74.63
2023-01-29T09:38:05.254Z,74.72
2023-01-29T09:40:41.223Z,74.73
2023-01-29T09:43:53.817Z,74.65
2023-01-29T09:46:52.876Z,74.32
2023-01-29T09:49:41.686Z,74.08
2023-01-29T09:52:22.698Z,74.08
2023-01-29T09:55:50.447Z,74.03
2023-01-29T09:58:27.349Z,74.25
2023-01-29T10:01:19.043Z,74.05
2023-01-29T10:04:02.542Z,74.11
2023-01-29T10:06:55.900Z,73.93
2023-01-29T10:09:57.533Z,73.58
2023-01-29T10:12:46.778Z,73.44
2023-01-29T10:15:43.016Z,73.46
2023-01-29T10:18:48.473Z,73.41
2023-01-29T10:21:50.978Z,73.40
2023-01-29T10:24:35.517Z,73.18
2023-01-29T10:27:12.209Z,73.07
2023-01-29T10:29:43.450Z,72.77
2023-01-29T10:32:18.493Z,72.62
2023-01-29T10:35:13.909Z,72.29
2023-01-29T10:37:43.928Z,72.07
2023-01-29T10:40:25.639Z,72.51
2023-01-29T10:43:11.114Z,72.54
2023-01-29T10:46:14.653Z,72.64
2023-01-29T10:48:54.699Z,72.41
2023-01-29T10:51:42.768Z,72.35
2023-01-29T10:54:18.704Z,72.72
2023-01-29T10:57:31.219Z,72.45
2023-01-29T11:00:21.668Z,72.07
2023-01-29T11:02:51.783Z,71.08
2023-01-29T11:05:44.418Z,70.33
2023-01-29T11:08:21.789Z,70.34
2023-01-29T11:10:57.289Z,69.89
2023-01-29T11:13:32.685Z,70.52
2023-01-29T11:16:00.940Z,70.55
2023-01-29T11:18:49.159Z,70.92
2023-01-29T11:21:17.469Z,71.71
2023-01-29T11:23:46.542Z,71.60
2023-01-29T11:26:22.474Z,71.87
2023-01-29T11:28:51.541Z,71.95
2023-01-29T11:31:26.199Z,72.15
2023-01-29T11:34:04.457Z,71.97
2023-01-29T11:36:38.365Z,72.16
2023-01-29T11:39:17.541Z,72.00
2023-01-29T11:42:08.300Z,72.66
2023-01-29T11:44:43.068Z,72.18
2023-01-29T11:47:29.556Z,72.31
2023-01-29T11:50:02.756Z,72.56
2023-01-29T11:52:40.322Z,72.46
2023-01-29T11:55:21.470Z,72.67
2023-01-29T11:58:29.547Z,72.72
2023-01-29T12:00:59.996Z,72.99
2023-01-29T12:03:40.662Z,73.03
2023-01-29T12:06:32.906Z,72.40
2023-01-29T12:09:03.926Z,72.59
2023-01-29T12:11:35.493Z,72.58
2023-01-29T12:14:22.294Z,72.22
2023-01-29T12:16:55.418Z,71.71
2023-01-29T12:19:44.270Z,71.65
2023-01-29T12:22:33.184Z,71.30
2023-01-29T12:25:13.352Z,71.15
2023-01-29T12:28:09.570Z,70.95
2023-01-29T12:30:53.904Z,71.18
2023-01-29T12:33:38.390Z,71.53
2023-01-29T12:36:53.085Z,71.66
2023-01-29T12:39:21.934Z,71.88
2023-01-29T12:42:04.452Z,71.94
2023-01-29T12:44:43.623Z,72.12
2023-01-29T12:47:25.240Z,72.09
2023-01-29T12:50:01.247Z,72.13
2023-01-29T12:53:06.108Z,72.34
2023-01-29T12:55:44.700Z,72.29
2023-01-29T12:58:18.210Z,72.44
2023-01-29T13:00:51.039Z,72.54
2023-01-29T13:03:25.335Z,72.47
2023-01-29T13:06:02.595Z,72.42
2023-01-29T13:08:37.637Z,72.73
2023-01-29T13:11:18.188Z,72.85
2023-01-29T13:14:03.503Z,73.47
2023-01-29T13:16:40.880Z,73.57
2023-01-29T13:19:43.457Z,73.45
2023-01-29T13:22:26.274Z,72.82
2023-01-29T13:25:04.104Z,72.87
2023-01-29T13:27:35.527Z,72.53
2023-01-29T13:30:04.775Z,72.46
2023-01-29T13:32:35.946Z,72.35
2023-01-29T13:35:15.439Z,72.60
2023-01-29T13:37:55.437Z,72.65
2023-01-29T13:40:30.319Z,72.79
2023-01-29T13:43:00.395Z,72.70
2023-01-29T13:45:43.755Z,72.61
2023-01-29T13:48:32.553Z,72.71
2023-01-29T13:51:03.912Z,72.72
2023-01-29T13:53:40.632Z,72.71
2023-01-29T13:56:33.477Z,72.47
2023-01-29T13:59:06.589Z,72.69
2023-01-29T14:01:47.135Z,72.25
2023-01-29T14:04:32.497Z,72.31
2023-01-29T14:07:06.563Z,72.21
2023-01-29T14:09:37.611Z,72.13
2023-01-29T14:12:25.643Z,71.95
2023-01-29T14:14:59.514Z,71.82
2023-01-29T14:17:29.237Z,71.49
2023-01-29T14:20:19.223Z,71.10
2023-01-29T14:22:57.754Z,71.18
2023-01-29T14:25:38.998Z,70.75
2023-01-29T14:28:29.524Z,70.93
2023-01-29T14:30:59.101Z,70.87
2023-01-29T14:33:41.727Z,71.21
2023-01-29T14:36:14.836Z,71.02
2023-01-29T14:38:52.672Z,70.70
2023-01-29T14:41:34.665Z,70.82
2023-01-29T14:44:55.973Z,70.79
2023-01-29T14:47:27.192Z,70.59
2023-01-29T14:49:58.529Z,70.64
2023-01-29T14:52:41.668Z,70.63
2023-01-29T14:55:37.686Z,70.61
2023-01-29T14:58:11.615Z,70.37
2023-01-29T15:00:45.021Z,70.15
2023-01-29T15:03:29.665Z,70.25
2023-01-29T15:05:59.546Z,69.99
2023-01-29T15:08:40.680Z,70.01
2023-01-29T15:11:36.509Z,70.36
2023-01-29T15:14:28.830Z,70.21
2023-01-29T15:17:09.169Z,69.92
2023-01-29T15:19:48.598Z,70.32
2023-01-29T15:22:23.300Z,70.56
2023-01-29T15:25:15.355Z,70.49
2023-01-29T15:27:45.547Z,70.43
2023-01-29T15:30:33.051Z,70.50
2023-01-29T15:33:03.162Z,70.40
2023-01-29T15:35:37.283Z,70.45
2023-01-29T15:38:18.342Z,70.49
2023-01-29T15:41:21.433Z,70.79
2023-01-29T15:43:57.154Z,70.62
2023-01-29T15:46:40.370Z,70.51
2023-01-29T15:49:16.588Z,70.48
2023-01-29T15:51:46.449Z,70.56
2023-01-29T15:54:17.153Z,70.46
2023-01-29T15:56:51.187Z,70.61
2023-01-29T15:59:25.258Z,70.38
2023-01-29T16:01:54.380Z,70.38
2023-01-29T16:04:31.435Z,70.05
2023-01-29T16:07:01.789Z,70.39
2023-01-29T16:09:30.144Z,70.57
2023-01-29T16:11:59.696Z,70.46
2023-01-29T16:14:28.701Z,70.47
2023-01-29T16:16:56.879Z,70.23
2023-01-29T16:19:29.619Z,70.31
2023-01-29T16:22:05.388Z,70.43
2023-01-29T16:24:37.244Z,70.53
2023-01-29T16:27:14.369Z,70.26
2023-01-29T16:29:42.508Z,70.43
2023-01-29T16:32:13.786Z,70.36
2023-01-29T16:34:45.531Z,70.48
2023-01-29T16:37:38.959Z,70.42
2023-01-29T16:40:33.069Z,70.58
2023-01-29T16:43:19.887Z,70.30
2023-01-29T16:46:52.263Z,70.19
2023-01-29T16:49:29.163Z,70.27
2023-01-29T16:52:27.980Z,70.53
2023-01-29T16:55:12.090Z,70.32
2023-01-29T16:57:41.262Z,70.14
2023-01-29T17:00:22.980Z,70.32
2023-01-29T17:02:56.414Z,70.22
2023-01-29T17:05:35.641Z,70.43
2023-01-29T17:08:05.845Z,70.51
2023-01-29T17:10:35.994Z,70.15
2023-01-29T17:13:08.843Z,69.94
2023-01-29T17:15:45.849Z,69.77
2023-01-29T17:18:25.103Z,69.73
2023-01-29T17:20:53.684Z,70.11
2023-01-29T17:23:23.111Z,69.92
2023-01-29T17:25:51.906Z,70.16
2023-01-29T17:28:20.014Z,70.04
2023-01-29T17:31:00.355Z,70.21
2023-01-29T17:33:42.752Z,70.35
2023-01-29T17:36:13.953Z,70.45
2023-01-29T17:38:42.530Z,70.47
2023-01-29T17:41:25.915Z,70.18
2023-01-29T17:43:54.029Z,69.88
2023-01-29T17:46:22.865Z,70.30
2023-01-29T17:48:51.248Z,70.36
2023-01-29T17:51:19.836Z,70.54
2023-01-29T17:53:47.921Z,70.40
2023-01-29T17:56:30.287Z,70.37
2023-01-29T17:58:58.527Z,70.19
2023-01-29T18:01:26.711Z,70.74
2023-01-29T18:03:54.881Z,70.86
2023-01-29T18:06:29.935Z,70.69
2023-01-29T18:08:58.559Z,70.56
2023-01-29T18:11:27.196Z,70.75
2023-01-29T18:13:57.288Z,70.38
2023-01-29T18:16:25.974Z,70.51
2023-01-29T18:18:55.060Z,70.55
2023-01-29T18:21:23.204Z,70.77
2023-01-29T18:23:53.467Z,70.64
2023-01-29T18:26:22.750Z,70.45
2023-01-29T18:28:50.901Z,70.64
2023-01-29T18:31:19.059Z,70.77
2023-01-29T18:33:47.472Z,70.47
2023-01-29T18:36:15.748Z,70.39
2023-01-29T18:38:43.891Z,70.36
2023-01-29T18:41:12.133Z,70.45
2023-01-29T18:43:41.995Z,70.53
2023-01-29T18:46:10.725Z,70.80
2023-01-29T18:48:40.438Z,70.58
2023-01-29T18:51:09.983Z,70.52
2023-01-29T18:53:38.132Z,70.41
2023-01-29T18:56:06.817Z,70.48
2023-01-29T18:58:36.628Z,70.44
2023-01-29T19:01:11.674Z,70.60
2023-01-29T19:03:41.489Z,70.56
2023-01-29T19:06:11.671Z,70.42
2023-01-29T19:08:41.188Z,70.57
2023-01-29T19:11:09.733Z,70.39
2023-01-29T19:13:38.169Z,70.39
2023-01-29T19:16:10.846Z,70.38
2023-01-29T19:18:39.470Z,70.07
2023-01-29T19:21:13.983Z,70.04
2023-01-29T19:23:43.707Z,69.96
2023-01-29T19:26:13.464Z,69.95
2023-01-29T19:28:41.987Z,69.62
2023-01-29T19:31:10.469Z,69.62
2023-01-29T19:33:39.425Z,69.40
2023-01-29T19:36:08.155Z,69.68
2023-01-29T19:38:38.691Z,69.38
2023-01-29T19:41:06.948Z,69.54
2023-01-29T19:43:35.242Z,69.39
2023-01-29T19:46:03.513Z,68.73
2023-01-29T19:48:31.662Z,69.38
2023-01-29T19:51:04.349Z,69.27
2023-01-29T19:53:32.640Z,69.43
2023-01-29T19:56:13.275Z,69.37
2023-01-29T19:58:41.780Z,69.20
2023-01-29T20:01:17.949Z,69.30
2023-01-29T20:03:48.640Z,69.46
2023-01-29T20:06:24.543Z,69.39
2023-01-29T20:08:53.301Z,69.25
2023-01-29T20:11:22.992Z,69.20
2023-01-29T20:13:52.741Z,69.29
2023-01-29T20:16:22.059Z,69.47
2023-01-29T20:18:50.261Z,69.22
2023-01-29T20:21:21.950Z,69.26
2023-01-29T20:23:51.734Z,69.57
2023-01-29T20:26:21.549Z,69.47
2023-01-29T20:28:50.069Z,69.05
2023-01-29T20:31:18.223Z,68.99
2023-01-29T20:33:46.436Z,68.73
2023-01-29T20:36:15.028Z,69.06
2023-01-29T20:38:43.157Z,69.09
2023-01-29T20:41:17.806Z,69.15
2023-01-29T20:43:47.354Z,69.35
2023-01-29T20:46:15.701Z,69.11
2023-01-29T20:48:43.951Z,69.12
2023-01-29T20:51:16.514Z,69.15
2023-01-29T20:53:47.003Z,68.92
2023-01-29T20:56:17.283Z,68.78
2023-01-29T20:58:46.849Z,69.11
2023-01-29T21:01:19.254Z,68.94
2023-01-29T21:03:48.405Z,68.89
2023-01-29T21:06:16.575Z,68.88
2023-01-29T21:08:44.710Z,68.68
2023-01-29T21:11:12.838Z,68.30
2023-01-29T21:13:41.054Z,68.30
2023-01-29T21:16:10.852Z,68.63
2023-01-29T21:18:39.176Z,67.79
2023-01-29T21:21:07.288Z,68.18
2023-01-29T21:23:35.420Z,67.63
2023-01-29T21:26:06.768Z,67.83
2023-01-29T21:28:35.032Z,67.69
2023-01-29T21:31:10.707Z,67.53
2023-01-29T21:33:38.878Z,67.15
2023-01-29T21:36:08.456Z,67.08
2023-01-29T21:38:37.031Z,66.17
2023-01-29T21:41:08.993Z,65.80
2023-01-29T21:43:38.205Z,65.39
2023-01-29T21:46:15.560Z,66.03
2023-01-29T21:48:43.768Z,66.35
2023-01-29T21:51:11.864Z,65.48
2023-01-29T21:53:39.998Z,65.01
2023-01-29T21:56:08.196Z,65.09
2023-01-29T21:58:36.322Z,65.05
2023-01-29T22:01:35.161Z,65.13
2023-01-29T22:03:52.755Z,65.10
2023-01-29T22:06:21.022Z,65.29
2023-01-29T22:08:50.259Z,65.58
2023-01-29T22:11:18.666Z,65.58
2023-01-29T22:13:47.156Z,65.81
2023-01-29T22:16:15.253Z,66.04
2023-01-29T22:18:43.373Z,66.26
2023-01-29T22:21:11.481Z,66.49
2023-01-29T22:23:39.583Z,66.55
2023-01-29T22:26:09.920Z,66.54
2023-01-29T22:28:38.134Z,66.55
2023-01-29T22:31:06.538Z,66.97
2023-01-29T22:33:35.112Z,66.89
2023-01-29T22:36:04.476Z,66.81
2023-01-29T22:38:32.627Z,67.07
2023-01-29T22:41:01.354Z,66.84
2023-01-29T22:43:29.530Z,67.16
2023-01-29T22:45:57.847Z,67.31
2023-01-29T22:48:26.869Z,67.00
2023-01-29T22:51:13.728Z,67.11
2023-01-29T22:53:51.317Z,67.07
2023-01-29T22:56:21.551Z,67.41
2023-01-29T22:58:55.142Z,67.25
2023-01-29T23:01:28.398Z,67.08
2023-01-29T23:03:56.949Z,67.27
2023-01-29T23:06:25.177Z,67.32
2023-01-29T23:08:53.544Z,67.22
2023-01-29T23:11:23.552Z,67.18
2023-01-29T23:13:55.493Z,66.77
2023-01-29T23:16:27.971Z,67.05
2023-01-29T23:18:57.249Z,67.08
2023-01-29T23:21:27.248Z,67.12
2023-01-29T23:23:58.263Z,66.88
2023-01-29T23:26:46.315Z,66.92
2023-01-29T23:29:15.216Z,67.01
2023-01-29T23:31:43.416Z,66.98
2023-01-29T23:34:11.623Z,67.01
2023-01-29T23:36:39.850Z,66.92
2023-01-29T23:39:08.821Z,66.74
2023-01-29T23:41:37.074Z,66.89
2023-01-29T23:44:05.360Z,66.81
2023-01-29T23:46:33.630Z,66.81
2023-01-29T23:49:02.058Z,67.05
2023-01-29T23:51:30.336Z,67.04
2023-01-29T23:53:58.452Z,67.08
2023-01-29T23:56:26.738Z,66.96
2023-01-29T23:58:57.198Z,67.01
